createdAt,value
2017-09-12T00:00:05.861Z,0
2017-09-12T00:01:06.160Z,0
2017-09-12T00:02:05.839Z,0
2017-09-12T00:03:05.831Z,0
2017-09-12T00:04:06.454Z,0
2017-09-12T00:05:06.436Z,0
2017-09-12T00:06:05.804Z,0
2017-09-12T00:07:06.112Z,0
2017-09-12T00:08:05.166Z,0
2017-09-12T00:09:05.468Z,0
2017-09-12T00:10:05.465Z,0
2017-09-12T00:11:05.772Z,0
2017-09-12T00:12:05.548Z,0
2017-09-12T00:13:05.760Z,0
2017-09-12T00:14:05.436Z,0
2017-09-12T00:15:06.062Z,0
2017-09-12T00:16:06.054Z,0
2017-09-12T00:17:06.364Z,0
2017-09-12T00:18:05.723Z,0
2017-09-12T00:19:06.349Z,0
2017-09-12T00:20:05.708Z,0
2017-09-12T00:21:06.018Z,0
2017-09-12T00:22:06.015Z,0
2017-09-12T00:23:05.371Z,0
2017-09-12T00:24:05.049Z,0
2017-09-12T00:25:05.045Z,0
2017-09-12T00:26:05.670Z,0
2017-09-12T00:27:05.976Z,0
2017-09-12T00:28:05.968Z,0
2017-09-12T00:29:05.950Z,0
2017-09-12T00:30:05.736Z,0
2017-09-12T00:31:05.946Z,0
2017-09-12T00:32:05.624Z,0
2017-09-12T00:33:05.929Z,0
2017-09-12T00:34:05.612Z,0
2017-09-12T00:35:05.283Z,0
2017-09-12T00:36:05.596Z,0
2017-09-12T00:37:04.958Z,0
2017-09-12T00:38:05.267Z,0
2017-09-12T00:39:05.262Z,0
2017-09-12T00:40:05.889Z,0
2017-09-12T00:41:05.873Z,0
2017-09-12T00:42:05.241Z,0
2017-09-12T00:43:05.553Z,0
2017-09-12T00:44:05.251Z,0
2017-09-12T00:45:06.155Z,0
2017-09-12T00:46:06.147Z,0
2017-09-12T00:47:06.033Z,0
2017-09-12T00:48:04.981Z,0
2017-09-12T00:49:05.816Z,0
2017-09-12T00:50:06.129Z,0
2017-09-12T00:51:05.491Z,0
2017-09-12T00:52:04.853Z,0
2017-09-12T00:53:05.472Z,0
2017-09-12T00:54:05.189Z,0
2017-09-12T00:55:06.086Z,0
2017-09-12T00:56:05.455Z,0
2017-09-12T00:57:06.174Z,0
2017-09-12T00:58:06.065Z,0
2017-09-12T00:59:05.431Z,0
2017-09-12T01:00:05.837Z,0
2017-09-12T01:01:05.416Z,0
2017-09-12T01:02:05.530Z,0
2017-09-12T01:03:05.408Z,0
2017-09-12T01:04:05.083Z,0
2017-09-12T01:05:05.176Z,0
2017-09-12T01:06:05.382Z,0
2017-09-12T01:07:05.373Z,0
2017-09-12T01:08:05.390Z,0
2017-09-12T01:09:04.830Z,0
2017-09-12T01:10:04.729Z,0
2017-09-12T01:11:05.031Z,0
2017-09-12T01:12:05.024Z,0
2017-09-12T01:13:05.747Z,0
2017-09-12T01:14:05.334Z,0
2017-09-12T01:15:05.317Z,0
2017-09-12T01:16:05.313Z,0
2017-09-12T01:17:05.309Z,0
2017-09-12T01:18:05.613Z,0
2017-09-12T01:19:04.974Z,0
2017-09-12T01:20:04.659Z,0
2017-09-12T01:21:05.584Z,0
2017-09-12T01:22:05.270Z,0
2017-09-12T01:23:05.267Z,0
2017-09-12T01:24:04.625Z,0
2017-09-12T01:25:05.350Z,0
2017-09-12T01:26:05.551Z,0
2017-09-12T01:27:04.916Z,0
2017-09-12T01:28:05.324Z,0
2017-09-12T01:29:05.531Z,0
2017-09-12T01:30:04.892Z,0
2017-09-12T01:31:05.518Z,0
2017-09-12T01:32:05.196Z,0
2017-09-12T01:33:05.824Z,0
2017-09-12T01:34:05.185Z,0
2017-09-12T01:35:05.174Z,0
2017-09-12T01:36:05.178Z,0
2017-09-12T01:37:05.160Z,0
2017-09-12T01:38:04.524Z,0
2017-09-12T01:39:04.616Z,0
2017-09-12T01:40:05.764Z,0
2017-09-12T01:41:04.817Z,0
2017-09-12T01:42:05.439Z,0
2017-09-12T01:43:04.804Z,0
2017-09-12T01:44:05.105Z,0
2017-09-12T01:45:05.204Z,0
2017-09-12T01:46:05.828Z,0
2017-09-12T01:47:05.089Z,0
2017-09-12T01:48:05.708Z,0
2017-09-12T01:49:05.386Z,0
2017-09-12T01:50:05.065Z,0
2017-09-12T01:51:05.066Z,0
2017-09-12T01:52:05.053Z,0
2017-09-12T01:53:05.370Z,0
2017-09-12T01:54:04.724Z,0
2017-09-12T01:55:05.346Z,0
2017-09-12T01:56:05.339Z,0
2017-09-12T01:57:05.019Z,0
2017-09-12T01:58:05.320Z,0
2017-09-12T01:59:04.688Z,0
2017-09-12T02:00:04.780Z,0
2017-09-12T02:01:04.995Z,0
2017-09-12T02:02:05.639Z,0
2017-09-12T02:03:05.289Z,0
2017-09-12T02:04:05.070Z,0
2017-09-12T02:05:04.970Z,0
2017-09-12T02:06:05.050Z,0
2017-09-12T02:07:05.262Z,0
2017-09-12T02:08:04.623Z,0
2017-09-12T02:09:04.937Z,0
2017-09-12T02:10:04.610Z,0
2017-09-12T02:11:05.223Z,0
2017-09-12T02:12:04.916Z,0
2017-09-12T02:13:05.004Z,0
2017-09-12T02:14:04.585Z,0
2017-09-12T02:15:05.230Z,0
2017-09-12T02:16:04.569Z,0
2017-09-12T02:17:05.290Z,0
2017-09-12T02:18:05.175Z,0
2017-09-12T02:19:05.488Z,0
2017-09-12T02:20:04.855Z,0
2017-09-12T02:21:04.844Z,0
2017-09-12T02:22:05.259Z,0
2017-09-12T02:23:05.243Z,0
2017-09-12T02:24:05.138Z,0
2017-09-12T02:25:04.813Z,0
2017-09-12T02:26:04.496Z,0
2017-09-12T02:27:05.129Z,0
2017-09-12T02:28:04.483Z,0
2017-09-12T02:29:04.578Z,0
2017-09-12T02:30:04.782Z,0
2017-09-12T02:31:04.773Z,0
2017-09-12T02:32:04.452Z,0
2017-09-12T02:33:04.863Z,0
2017-09-12T02:34:04.755Z,0
2017-09-12T02:35:04.742Z,0
2017-09-12T02:36:04.418Z,0
2017-09-12T02:37:04.730Z,0
2017-09-12T02:38:05.145Z,0
2017-09-12T02:39:05.034Z,0
2017-09-12T02:40:04.401Z,0
2017-09-12T02:41:04.701Z,0
2017-09-12T02:42:05.017Z,0
2017-09-12T02:43:05.106Z,0
2017-09-12T02:44:05.110Z,0
2017-09-12T02:45:04.361Z,0
2017-09-12T02:46:04.355Z,0
2017-09-12T02:47:04.659Z,0
2017-09-12T02:48:04.653Z,0
2017-09-12T02:49:04.957Z,0
2017-09-12T02:50:04.325Z,0
2017-09-12T02:51:05.151Z,0
2017-09-12T02:52:04.939Z,0
2017-09-12T02:53:04.621Z,0
2017-09-12T02:54:04.394Z,0
2017-09-12T02:55:04.390Z,0
2017-09-12T02:56:04.905Z,0
2017-09-12T02:57:03.958Z,0
2017-09-12T02:58:04.582Z,0
2017-09-12T02:59:04.254Z,0
2017-09-12T03:00:04.986Z,0
2017-09-12T03:01:04.965Z,0
2017-09-12T03:02:04.548Z,0
2017-09-12T03:03:04.856Z,0
2017-09-12T03:04:04.852Z,0
2017-09-12T03:05:04.536Z,0
2017-09-12T03:06:05.044Z,0
2017-09-12T03:07:04.203Z,0
2017-09-12T03:08:03.882Z,0
2017-09-12T03:09:04.499Z,0
2017-09-12T03:10:04.594Z,0
2017-09-12T03:11:04.485Z,0
2017-09-12T03:12:04.476Z,0
2017-09-12T03:13:04.470Z,0
2017-09-12T03:14:04.775Z,0
2017-09-12T03:15:03.826Z,0
2017-09-12T03:16:04.452Z,0
2017-09-12T03:17:04.858Z,0
2017-09-12T03:18:05.056Z,0
2017-09-12T03:19:05.058Z,0
2017-09-12T03:20:05.053Z,0
2017-09-12T03:21:04.728Z,0
2017-09-12T03:22:04.092Z,0
2017-09-12T03:23:04.085Z,0
2017-09-12T03:24:04.080Z,0
2017-09-12T03:25:05.042Z,0
2017-09-12T03:26:04.375Z,0
2017-09-12T03:27:04.372Z,0
2017-09-12T03:28:04.369Z,0
2017-09-12T03:29:04.040Z,0
2017-09-12T03:30:04.666Z,0
2017-09-12T03:31:04.350Z,0
2017-09-12T03:32:04.643Z,0
2017-09-12T03:33:04.428Z,0
2017-09-12T03:34:04.427Z,0
2017-09-12T03:35:04.315Z,0
2017-09-12T03:36:03.990Z,0
2017-09-12T03:37:04.305Z,0
2017-09-12T03:38:04.286Z,0
2017-09-12T03:39:04.383Z,0
2017-09-12T03:40:04.270Z,0
2017-09-12T03:41:04.585Z,0
2017-09-12T03:42:04.265Z,0
2017-09-12T03:43:04.890Z,0
2017-09-12T03:44:04.565Z,0
2017-09-12T03:45:03.928Z,0
2017-09-12T03:46:03.922Z,0
2017-09-12T03:47:04.225Z,0
2017-09-12T03:48:03.907Z,0
2017-09-12T03:49:04.623Z,0
2017-09-12T03:50:03.892Z,0
2017-09-12T03:51:04.197Z,0
2017-09-12T03:52:04.819Z,0
2017-09-12T03:53:04.813Z,0
2017-09-12T03:54:04.494Z,0
2017-09-12T03:55:03.862Z,0
2017-09-12T03:56:04.476Z,0
2017-09-12T03:57:04.151Z,0
2017-09-12T03:58:04.158Z,0
2017-09-12T03:59:04.024Z,0
2017-09-12T04:00:04.134Z,0
2017-09-12T04:01:04.124Z,0
2017-09-12T04:02:04.431Z,0
2017-09-12T04:03:04.210Z,0
2017-09-12T04:04:03.795Z,0
2017-09-12T04:05:04.409Z,0
2017-09-12T04:06:04.399Z,0
2017-09-12T04:07:03.452Z,0
2017-09-12T04:08:04.495Z,0
2017-09-12T04:09:04.070Z,0
2017-09-12T04:10:03.433Z,0
2017-09-12T04:11:04.163Z,0
2017-09-12T04:12:04.043Z,0
2017-09-12T04:13:04.148Z,0
2017-09-12T04:14:04.760Z,0
2017-09-12T04:15:03.715Z,0
2017-09-12T04:16:03.701Z,0
2017-09-12T04:17:04.744Z,0
2017-09-12T04:18:04.001Z,0
2017-09-12T04:19:04.099Z,0
2017-09-12T04:20:03.986Z,0
2017-09-12T04:21:03.979Z,0
2017-09-12T04:22:04.282Z,0
2017-09-12T04:23:03.966Z,0
2017-09-12T04:24:04.058Z,0
2017-09-12T04:25:04.152Z,0
2017-09-12T04:26:04.263Z,0
2017-09-12T04:27:03.621Z,0
2017-09-12T04:28:03.938Z,0
2017-09-12T04:29:04.028Z,0
2017-09-12T04:30:04.538Z,0
2017-09-12T04:31:04.215Z,0
2017-09-12T04:32:03.900Z,0
2017-09-12T04:33:04.207Z,0
2017-09-12T04:34:04.298Z,0
2017-09-12T04:35:03.882Z,0
2017-09-12T04:36:04.613Z,0
2017-09-12T04:37:03.864Z,0
2017-09-12T04:38:03.861Z,0
2017-09-12T04:39:03.535Z,0
2017-09-12T04:40:04.160Z,0
2017-09-12T04:41:04.251Z,0
2017-09-12T04:42:03.827Z,0
2017-09-12T04:43:04.240Z,0
2017-09-12T04:44:04.127Z,0
2017-09-12T04:45:03.823Z,0
2017-09-12T04:46:04.112Z,0
2017-09-12T04:47:04.106Z,0
2017-09-12T04:48:04.095Z,0
2017-09-12T04:49:03.779Z,0
2017-09-12T04:50:04.397Z,0
2017-09-12T04:51:03.763Z,0
2017-09-12T04:52:03.757Z,0
2017-09-12T04:53:03.743Z,0
2017-09-12T04:54:03.529Z,0
2017-09-12T04:55:03.734Z,0
2017-09-12T04:56:04.049Z,0
2017-09-12T04:57:03.824Z,0
2017-09-12T04:58:03.713Z,0
2017-09-12T04:59:04.015Z,0
2017-09-12T05:00:03.704Z,0
2017-09-12T05:01:04.110Z,0
2017-09-12T05:02:03.998Z,0
2017-09-12T05:03:03.816Z,0
2017-09-12T05:04:03.674Z,0
2017-09-12T05:05:03.352Z,0
2017-09-12T05:06:03.658Z,0
2017-09-12T05:07:03.332Z,0
2017-09-12T05:08:03.427Z,0
2017-09-12T05:09:03.635Z,0
2017-09-12T05:10:03.635Z,0
2017-09-12T05:11:02.990Z,0
2017-09-12T05:12:03.298Z,0
2017-09-12T05:13:03.291Z,0
2017-09-12T05:14:03.597Z,0
2017-09-12T05:15:04.226Z,0
2017-09-12T05:16:03.890Z,0
2017-09-12T05:17:03.993Z,0
2017-09-12T05:18:03.879Z,0
2017-09-12T05:19:03.256Z,0
2017-09-12T05:20:03.548Z,0
2017-09-12T05:21:03.866Z,0
2017-09-12T05:22:03.739Z,0
2017-09-12T05:23:03.529Z,0
2017-09-12T05:24:03.936Z,0
2017-09-12T05:25:03.839Z,0
2017-09-12T05:26:03.925Z,0
2017-09-12T05:27:03.189Z,0
2017-09-12T05:28:03.180Z,0
2017-09-12T05:29:03.491Z,0
2017-09-12T05:30:03.798Z,0
2017-09-12T05:31:03.470Z,0
2017-09-12T05:32:02.834Z,0
2017-09-12T05:33:04.089Z,0
2017-09-12T05:34:03.135Z,0
2017-09-12T05:35:03.759Z,0
2017-09-12T05:36:03.749Z,0
2017-09-12T05:37:03.746Z,0
2017-09-12T05:38:03.731Z,0
2017-09-12T05:39:03.728Z,0
2017-09-12T05:40:03.722Z,0
2017-09-12T05:41:03.093Z,0
2017-09-12T05:42:03.707Z,0
2017-09-12T05:43:03.711Z,0
2017-09-12T05:44:03.690Z,0
2017-09-12T05:45:03.059Z,0
2017-09-12T05:46:03.361Z,0
2017-09-12T05:47:03.981Z,0
2017-09-12T05:48:03.666Z,0
2017-09-12T05:49:03.344Z,0
2017-09-12T05:50:03.331Z,0
2017-09-12T05:51:03.330Z,0
2017-09-12T05:52:03.006Z,0
2017-09-12T05:53:03.002Z,0
2017-09-12T05:54:03.932Z,0
2017-09-12T05:55:03.714Z,0
2017-09-12T05:56:03.286Z,0
2017-09-12T05:57:02.760Z,0
2017-09-12T05:58:03.275Z,0
2017-09-12T05:59:03.588Z,0
2017-09-12T06:00:03.257Z,0
2017-09-12T06:01:03.256Z,0
2017-09-12T06:02:03.257Z,0
2017-09-12T06:03:03.237Z,0
2017-09-12T06:04:03.549Z,0
2017-09-12T06:05:03.549Z,0
2017-09-12T06:06:03.228Z,0
2017-09-12T06:07:03.213Z,0
2017-09-12T06:08:02.894Z,0
2017-09-12T06:09:02.889Z,0
2017-09-12T06:10:03.510Z,0
2017-09-12T06:11:03.308Z,0
2017-09-12T06:12:02.867Z,0
2017-09-12T06:13:03.486Z,0
2017-09-12T06:14:03.165Z,5
2017-09-12T06:15:03.160Z,5
2017-09-12T06:16:02.841Z,5
2017-09-12T06:17:03.873Z,5
2017-09-12T06:18:03.139Z,5
2017-09-12T06:19:17.725Z,5
2017-09-12T06:20:02.495Z,5
2017-09-12T06:21:03.113Z,5
2017-09-12T06:22:02.483Z,5
2017-09-12T06:23:03.203Z,5
2017-09-12T06:24:03.096Z,5
2017-09-12T06:25:03.099Z,5
2017-09-12T06:26:03.410Z,5
2017-09-12T06:27:03.172Z,5
2017-09-12T06:28:03.402Z,5
2017-09-12T06:29:03.391Z,5
2017-09-12T06:30:03.367Z,5
2017-09-12T06:31:03.680Z,5
2017-09-12T06:32:03.670Z,5
2017-09-12T06:33:03.026Z,10
2017-09-12T06:34:03.017Z,10
2017-09-12T06:35:03.014Z,10
2017-09-12T06:36:03.320Z,10
2017-09-12T06:37:03.014Z,10
2017-09-12T06:38:03.308Z,10
2017-09-12T06:39:02.672Z,10
2017-09-12T06:40:02.767Z,10
2017-09-12T06:41:03.285Z,10
2017-09-12T06:42:03.079Z,10
2017-09-12T06:43:03.266Z,10
2017-09-12T06:44:03.265Z,10
2017-09-12T06:45:02.313Z,10
2017-09-12T06:46:02.624Z,10
2017-09-12T06:47:02.931Z,10
2017-09-12T06:48:02.921Z,10
2017-09-12T06:49:02.915Z,10
2017-09-12T06:50:03.227Z,10
2017-09-12T06:51:02.586Z,10
2017-09-12T06:52:03.211Z,10
2017-09-12T06:53:03.206Z,10
2017-09-12T06:54:02.673Z,10
2017-09-12T06:55:02.562Z,10
2017-09-12T06:56:02.964Z,10
2017-09-12T06:57:02.980Z,10
2017-09-12T06:58:02.537Z,10
2017-09-12T06:59:03.161Z,10
2017-09-12T07:00:03.154Z,10
2017-09-12T07:01:03.146Z,10
2017-09-12T07:02:02.874Z,10
2017-09-12T07:03:02.919Z,15
2017-09-12T07:04:02.499Z,15
2017-09-12T07:05:02.805Z,15
2017-09-12T07:06:03.114Z,15
2017-09-12T07:07:02.789Z,15
2017-09-12T07:08:02.785Z,15
2017-09-12T07:09:03.192Z,15
2017-09-12T07:10:02.452Z,15
2017-09-12T07:11:03.077Z,15
2017-09-12T07:12:02.547Z,15
2017-09-12T07:13:03.066Z,15
2017-09-12T07:14:03.056Z,15
2017-09-12T07:15:02.746Z,20
2017-09-12T07:16:02.745Z,20
2017-09-12T07:17:02.723Z,20
2017-09-12T07:18:02.719Z,15
2017-09-12T07:19:03.339Z,15
2017-09-12T07:20:03.024Z,15
2017-09-12T07:21:03.010Z,15
2017-09-12T07:22:02.687Z,15
2017-09-12T07:23:02.998Z,15
2017-09-12T07:24:03.408Z,15
2017-09-12T07:25:02.671Z,15
2017-09-12T07:26:17.259Z,20
2017-09-12T07:27:02.659Z,20
2017-09-12T07:28:02.349Z,20
2017-09-12T07:29:02.341Z,20
2017-09-12T07:30:02.951Z,25
2017-09-12T07:31:03.267Z,25
2017-09-12T07:32:02.644Z,25
2017-09-12T07:33:02.929Z,20
2017-09-12T07:34:02.606Z,20
2017-09-12T07:35:01.973Z,20
2017-09-12T07:36:02.286Z,25
2017-09-12T07:37:02.901Z,25
2017-09-12T07:38:02.590Z,20
2017-09-12T07:39:02.673Z,20
2017-09-12T07:40:03.201Z,25
2017-09-12T07:41:02.564Z,20
2017-09-12T07:42:02.259Z,15
2017-09-12T07:43:02.545Z,15
2017-09-12T07:44:02.545Z,15
2017-09-12T07:45:02.536Z,10
2017-09-12T07:46:02.531Z,10
2017-09-12T07:47:02.205Z,10
2017-09-12T07:48:02.520Z,10
2017-09-12T07:49:01.878Z,10
2017-09-12T07:50:02.503Z,10
2017-09-12T07:51:02.813Z,10
2017-09-12T07:52:02.814Z,10
2017-09-12T07:53:02.794Z,10
2017-09-12T07:54:01.847Z,10
2017-09-12T07:55:02.473Z,10
2017-09-12T07:56:02.775Z,10
2017-09-12T07:57:02.243Z,15
2017-09-12T07:58:02.134Z,15
2017-09-12T07:59:02.126Z,15
2017-09-12T08:00:01.809Z,15
2017-09-12T08:01:02.428Z,15
2017-09-12T08:02:02.732Z,15
2017-09-12T08:03:02.515Z,15
2017-09-12T08:04:02.094Z,15
2017-09-12T08:05:02.404Z,15
2017-09-12T08:06:02.432Z,15
2017-09-12T08:07:02.735Z,20
2017-09-12T08:08:02.382Z,20
2017-09-12T08:09:02.474Z,25
2017-09-12T08:10:02.365Z,25
2017-09-12T08:11:02.044Z,25
2017-09-12T08:12:02.668Z,20
2017-09-12T08:13:01.721Z,20
2017-09-12T08:14:02.339Z,20
2017-09-12T08:15:02.325Z,20
2017-09-12T08:16:02.635Z,20
2017-09-12T08:17:02.629Z,20
2017-09-12T08:18:02.628Z,25
2017-09-12T08:19:01.985Z,20
2017-09-12T08:20:02.302Z,25
2017-09-12T08:21:02.611Z,25
2017-09-12T08:22:02.594Z,25
2017-09-12T08:23:02.588Z,25
2017-09-12T08:24:02.369Z,35
2017-09-12T08:25:02.364Z,35
2017-09-12T08:26:02.569Z,30
2017-09-12T08:27:02.875Z,30
2017-09-12T08:28:02.244Z,30
2017-09-12T08:29:02.552Z,30
2017-09-12T08:30:02.014Z,30
2017-09-12T08:31:02.648Z,30
2017-09-12T08:32:02.327Z,30
2017-09-12T08:33:01.898Z,30
2017-09-12T08:34:02.203Z,30
2017-09-12T08:35:02.200Z,35
2017-09-12T08:36:02.816Z,35
2017-09-12T08:37:02.503Z,30
2017-09-12T08:38:02.486Z,25
2017-09-12T08:39:02.800Z,25
2017-09-12T08:40:02.477Z,25
2017-09-12T08:41:01.845Z,20
2017-09-12T08:42:02.774Z,20
2017-09-12T08:43:01.513Z,25
2017-09-12T08:44:02.450Z,25
2017-09-12T08:45:02.448Z,30
2017-09-12T08:46:02.434Z,30
2017-09-12T08:47:01.491Z,30
2017-09-12T08:48:02.107Z,30
2017-09-12T08:49:02.107Z,30
2017-09-12T08:50:01.778Z,35
2017-09-12T08:51:01.774Z,30
2017-09-12T08:52:02.077Z,25
2017-09-12T08:53:02.075Z,25
2017-09-12T08:54:02.478Z,25
2017-09-12T08:55:01.754Z,25
2017-09-12T08:56:02.049Z,25
2017-09-12T08:57:01.734Z,25
2017-09-12T08:58:02.463Z,25
2017-09-12T08:59:02.359Z,25
2017-09-12T09:00:02.036Z,25
2017-09-12T09:01:02.651Z,20
2017-09-12T09:02:02.336Z,20
2017-09-12T09:03:02.006Z,20
2017-09-12T09:04:02.322Z,20
2017-09-12T09:05:02.021Z,20
2017-09-12T09:06:01.362Z,20
2017-09-12T09:07:02.509Z,20
2017-09-12T09:08:01.351Z,20
2017-09-12T09:09:01.977Z,15
2017-09-12T09:10:01.759Z,15
2017-09-12T09:11:02.592Z,15
2017-09-12T09:12:01.954Z,15
2017-09-12T09:13:01.944Z,15
2017-09-12T09:14:02.036Z,20
2017-09-12T09:15:01.927Z,20
2017-09-12T09:16:02.028Z,20
2017-09-12T09:17:01.916Z,20
2017-09-12T09:18:01.907Z,20
2017-09-12T09:19:02.228Z,15
2017-09-12T09:20:01.893Z,15
2017-09-12T09:21:02.237Z,15
2017-09-12T09:22:01.571Z,10
2017-09-12T09:23:01.884Z,10
2017-09-12T09:24:02.507Z,10
2017-09-12T09:25:02.185Z,10
2017-09-12T09:26:02.484Z,10
2017-09-12T09:27:01.855Z,10
2017-09-12T09:28:01.847Z,10
2017-09-12T09:29:01.529Z,10
2017-09-12T09:30:02.567Z,10
2017-09-12T09:31:01.836Z,10
2017-09-12T09:32:01.827Z,10
2017-09-12T09:33:01.499Z,10
2017-09-12T09:34:02.436Z,10
2017-09-12T09:35:02.120Z,10
2017-09-12T09:36:02.110Z,10
2017-09-12T09:37:01.889Z,10
2017-09-12T09:38:01.156Z,10
2017-09-12T09:39:01.771Z,10
2017-09-12T09:40:01.770Z,15
2017-09-12T09:41:01.763Z,10
2017-09-12T09:42:01.760Z,10
2017-09-12T09:43:01.434Z,15
2017-09-12T09:44:02.064Z,15
2017-09-12T09:45:02.047Z,20
2017-09-12T09:46:02.150Z,20
2017-09-12T09:47:01.728Z,20
2017-09-12T09:48:01.720Z,20
2017-09-12T09:49:02.030Z,15
2017-09-12T09:50:01.076Z,15
2017-09-12T09:51:01.703Z,20
2017-09-12T09:52:01.376Z,20
2017-09-12T09:53:01.372Z,20
2017-09-12T09:54:01.993Z,20
2017-09-12T09:55:01.672Z,25
2017-09-12T09:56:01.979Z,25
2017-09-12T09:57:01.667Z,25
2017-09-12T09:58:01.965Z,20
2017-09-12T09:59:01.967Z,20
2017-09-12T10:00:01.327Z,20
2017-09-12T10:01:01.322Z,20
2017-09-12T10:02:01.946Z,20
2017-09-12T10:03:01.621Z,20
2017-09-12T10:04:01.303Z,20
2017-09-12T10:05:02.245Z,25
2017-09-12T10:06:01.604Z,25
2017-09-12T10:07:01.176Z,25
2017-09-12T10:08:01.589Z,25
2017-09-12T10:09:01.896Z,25
2017-09-12T10:10:00.954Z,25
2017-09-12T10:11:01.266Z,25
2017-09-12T10:12:01.881Z,25
2017-09-12T10:13:02.196Z,25
2017-09-12T10:14:01.242Z,30
2017-09-12T10:15:01.590Z,30
2017-09-12T10:16:01.557Z,30
2017-09-12T10:17:01.637Z,25
2017-09-12T10:18:01.849Z,25
2017-09-12T10:19:01.524Z,25
2017-09-12T10:20:02.144Z,25
2017-09-12T10:21:01.199Z,25
2017-09-12T10:22:01.504Z,30
2017-09-12T10:23:01.507Z,35
2017-09-12T10:24:01.177Z,35
2017-09-12T10:25:01.488Z,35
2017-09-12T10:26:01.169Z,35
2017-09-12T10:27:00.846Z,35
2017-09-12T10:28:01.158Z,35
2017-09-12T10:29:01.779Z,35
2017-09-12T10:30:01.150Z,40
2017-09-12T10:31:01.142Z,40
2017-09-12T10:32:01.447Z,35
2017-09-12T10:33:01.861Z,30
2017-09-12T10:34:01.222Z,30
2017-09-12T10:35:01.216Z,30
2017-09-12T10:36:01.739Z,30
2017-09-12T10:37:01.423Z,25
2017-09-12T10:38:01.099Z,25
2017-09-12T10:39:01.404Z,30
2017-09-12T10:40:01.403Z,35
2017-09-12T10:41:01.391Z,35
2017-09-12T10:42:00.762Z,25
2017-09-12T10:43:01.382Z,20
2017-09-12T10:44:01.060Z,25
2017-09-12T10:45:01.380Z,25
2017-09-12T10:46:01.469Z,30
2017-09-12T10:47:01.672Z,35
2017-09-12T10:48:01.354Z,30
2017-09-12T10:49:01.030Z,30
2017-09-12T10:50:01.337Z,30
2017-09-12T10:51:01.020Z,30
2017-09-12T10:52:01.645Z,30
2017-09-12T10:53:01.425Z,25
2017-09-12T10:54:01.000Z,25
2017-09-12T10:55:01.407Z,30
2017-09-12T10:56:01.304Z,30
2017-09-12T10:57:01.307Z,35
2017-09-12T10:58:01.609Z,30
2017-09-12T10:59:01.614Z,35
2017-09-12T11:00:00.653Z,35
2017-09-12T11:01:01.612Z,30
2017-09-12T11:02:01.582Z,30
2017-09-12T11:03:01.574Z,30
2017-09-12T11:04:01.607Z,30
2017-09-12T11:05:01.357Z,35
2017-09-12T11:06:01.561Z,35
2017-09-12T11:07:01.266Z,40
2017-09-12T11:08:00.611Z,30
2017-09-12T11:09:00.913Z,30
2017-09-12T11:10:01.220Z,30
2017-09-12T11:11:01.527Z,30
2017-09-12T11:12:01.843Z,30
2017-09-12T11:13:00.895Z,30
2017-09-12T11:14:00.880Z,30
2017-09-12T11:15:00.877Z,30
2017-09-12T11:16:00.872Z,35
2017-09-12T11:17:00.865Z,35
2017-09-12T11:18:00.863Z,35
2017-09-12T11:19:00.857Z,30
2017-09-12T11:20:01.257Z,30
2017-09-12T11:21:01.262Z,30
2017-09-12T11:22:00.834Z,35
2017-09-12T11:23:01.143Z,50
2017-09-12T11:24:00.822Z,45
2017-09-12T11:25:01.455Z,45
2017-09-12T11:26:00.915Z,40
2017-09-12T11:27:01.435Z,35
2017-09-12T11:28:01.110Z,35
2017-09-12T11:29:01.111Z,35
2017-09-12T11:30:01.732Z,30
2017-09-12T11:31:00.788Z,30
2017-09-12T11:32:01.102Z,30
2017-09-12T11:33:01.406Z,30
2017-09-12T11:34:01.083Z,35
2017-09-12T11:35:01.393Z,40
2017-09-12T11:36:01.799Z,45
2017-09-12T11:37:01.069Z,40
2017-09-12T11:38:00.746Z,40
2017-09-12T11:39:01.055Z,45
2017-09-12T11:40:01.047Z,40
2017-09-12T11:41:01.036Z,30
2017-09-12T11:42:01.349Z,30
2017-09-12T11:43:01.658Z,25
2017-09-12T11:44:01.124Z,25
2017-09-12T11:45:00.718Z,25
2017-09-12T11:46:01.325Z,25
2017-09-12T11:47:01.007Z,25
2017-09-12T11:48:01.317Z,25
2017-09-12T11:49:00.993Z,25
2017-09-12T11:50:01.308Z,25
2017-09-12T11:51:00.980Z,25
2017-09-12T11:52:00.977Z,25
2017-09-12T11:53:01.381Z,25
2017-09-12T11:54:00.972Z,25
2017-09-12T11:55:00.646Z,30
2017-09-12T11:56:00.959Z,25
2017-09-12T11:57:01.580Z,25
2017-09-12T11:58:01.569Z,30
2017-09-12T11:59:00.308Z,30
2017-09-12T12:00:00.301Z,30
2017-09-12T12:01:01.345Z,35
2017-09-12T12:02:01.242Z,35
2017-09-12T12:03:01.243Z,30
2017-09-12T12:04:00.911Z,35
2017-09-12T12:05:00.276Z,30
2017-09-12T12:06:00.588Z,30
2017-09-12T12:07:00.896Z,30
2017-09-12T12:08:01.214Z,40
2017-09-12T12:09:01.614Z,30
2017-09-12T12:10:00.564Z,25
2017-09-12T12:11:00.972Z,20
2017-09-12T12:12:00.867Z,20
2017-09-12T12:13:01.170Z,15
2017-09-12T12:14:00.857Z,20
2017-09-12T12:15:00.846Z,25
2017-09-12T12:16:00.528Z,35
2017-09-12T12:17:00.835Z,35
2017-09-12T12:18:00.829Z,35
2017-09-12T12:19:00.825Z,40
2017-09-12T12:20:01.129Z,35
2017-09-12T12:21:01.137Z,40
2017-09-12T12:22:00.909Z,30
2017-09-12T12:23:00.486Z,30
2017-09-12T12:24:00.482Z,30
2017-09-12T12:25:00.890Z,30
2017-09-12T12:26:00.783Z,30
2017-09-12T12:27:01.094Z,30
2017-09-12T12:28:00.146Z,30
2017-09-12T12:29:00.456Z,30
2017-09-12T12:30:00.451Z,30
2017-09-12T12:31:00.443Z,30
2017-09-12T12:32:00.542Z,30
2017-09-12T12:33:00.741Z,20
2017-09-12T12:34:00.842Z,30
2017-09-12T12:35:00.735Z,25
2017-09-12T12:36:00.419Z,25
2017-09-12T12:37:00.727Z,30
2017-09-12T12:38:00.712Z,30
2017-09-12T12:39:00.809Z,35
2017-09-12T12:40:00.713Z,35
2017-09-12T12:41:01.018Z,35
2017-09-12T12:42:01.008Z,35
2017-09-12T12:43:00.690Z,35
2017-09-12T12:44:00.784Z,30
2017-09-12T12:45:00.991Z,25
2017-09-12T12:46:01.336Z,30
2017-09-12T12:47:00.043Z,30
2017-09-12T12:48:00.035Z,30
2017-09-12T12:49:01.281Z,30
2017-09-12T12:50:00.648Z,30
2017-09-12T12:51:00.337Z,30
2017-09-12T12:52:01.054Z,30
2017-09-12T12:53:00.949Z,25
2017-09-12T12:54:00.314Z,30
2017-09-12T12:55:00.950Z,25
2017-09-12T12:56:00.961Z,25
2017-09-12T12:57:01.239Z,25
2017-09-12T12:58:00.607Z,30
2017-09-12T12:59:00.613Z,25
2017-09-12T13:00:00.909Z,25
2017-09-12T13:01:00.379Z,30
2017-09-12T13:02:00.583Z,25
2017-09-12T13:03:00.891Z,25
2017-09-12T13:04:00.576Z,35
2017-09-12T13:05:01.195Z,30
2017-09-12T13:06:00.569Z,30
2017-09-12T13:06:59.930Z,25
2017-09-12T13:08:00.870Z,30
2017-09-12T13:09:00.860Z,30
2017-09-12T13:10:00.636Z,25
2017-09-12T13:11:00.537Z,30
2017-09-12T13:12:00.838Z,30
2017-09-12T13:13:00.629Z,30
2017-09-12T13:14:00.209Z,30
2017-09-12T13:15:00.826Z,30
2017-09-12T13:16:00.822Z,30
2017-09-12T13:17:00.191Z,30
2017-09-12T13:18:00.498Z,30
2017-09-12T13:19:01.121Z,30
2017-09-12T13:20:00.487Z,30
2017-09-12T13:21:00.478Z,30
2017-09-12T13:22:00.474Z,30
2017-09-12T13:23:00.153Z,30
2017-09-12T13:24:00.773Z,30
2017-09-12T13:25:01.183Z,30
2017-09-12T13:26:00.562Z,30
2017-09-12T13:27:00.444Z,30
2017-09-12T13:28:00.447Z,30
2017-09-12T13:29:00.441Z,30
2017-09-12T13:30:01.054Z,30
2017-09-12T13:31:00.529Z,30
2017-09-12T13:32:00.524Z,30
2017-09-12T13:33:00.416Z,30
2017-09-12T13:34:00.094Z,30
2017-09-12T13:35:00.821Z,35
2017-09-12T13:36:00.403Z,30
2017-09-12T13:37:00.707Z,30
2017-09-12T13:38:00.075Z,30
2017-09-12T13:39:00.379Z,30
2017-09-12T13:40:00.475Z,30
2017-09-12T13:41:00.159Z,35
2017-09-12T13:42:00.052Z,30
2017-09-12T13:43:00.676Z,35
2017-09-12T13:44:00.667Z,35
2017-09-12T13:45:00.349Z,35
2017-09-12T13:46:00.666Z,35
2017-09-12T13:47:00.960Z,30
2017-09-12T13:48:00.655Z,40
2017-09-12T13:49:00.012Z,45
2017-09-12T13:50:00.325Z,40
2017-09-12T13:51:00.311Z,35
2017-09-12T13:51:59.995Z,30
2017-09-12T13:53:00.619Z,35
2017-09-12T13:53:59.984Z,35
2017-09-12T13:55:00.400Z,35
2017-09-12T13:55:59.977Z,35
2017-09-12T13:56:59.972Z,35
2017-09-12T13:58:00.280Z,35
2017-09-12T13:59:00.274Z,45
2017-09-12T14:00:00.582Z,45
2017-09-12T14:00:59.949Z,45
2017-09-12T14:01:59.741Z,45
2017-09-12T14:03:00.585Z,45
2017-09-12T14:03:59.933Z,45
2017-09-12T14:05:00.243Z,50
2017-09-12T14:05:59.919Z,45
2017-09-12T14:07:00.537Z,45
2017-09-12T14:08:00.545Z,40
2017-09-12T14:09:00.216Z,40
2017-09-12T14:10:00.002Z,40
2017-09-12T14:11:00.529Z,45
2017-09-12T14:12:00.198Z,45
2017-09-12T14:13:00.196Z,55
2017-09-12T14:14:00.829Z,55
2017-09-12T14:15:00.390Z,40
2017-09-12T14:16:00.803Z,40
2017-09-12T14:17:00.176Z,45
2017-09-12T14:18:00.169Z,45
2017-09-12T14:19:00.789Z,50
2017-09-12T14:19:59.847Z,50
2017-09-12T14:21:00.464Z,45
2017-09-12T14:22:00.774Z,25
2017-09-12T14:23:00.146Z,25
2017-09-12T14:24:00.243Z,50
2017-09-12T14:25:00.143Z,60
2017-09-12T14:26:00.127Z,65
2017-09-12T14:27:00.116Z,70
2017-09-12T14:28:00.112Z,75
2017-09-12T14:29:00.529Z,80